Time;durP1;ratioP1;P1;durP2;ratioP2;P2;SDS_P1;SDS_P2;PMS_P1;PMS_P2;Temp;Humidity;BMP_temperature;BMP_pressure;BME280_temperature;BME280_humidity;BME280_pressure;Samples;Min_cycle;Max_cycle;Signal;HPM_P1;HPM_P2
2023/06/26 00:00:22;;;;;;;7.72;4.70;;;;;;;21.76;100.00;101334.22;5053049;28;20168;-79
2023/06/26 00:02:47;;;;;;;9.88;4.38;;;;;;;21.61;100.00;101341.66;5035485;28;20123;-80
2023/06/26 00:05:13;;;;;;;9.60;4.78;;;;;;;21.48;100.00;101339.66;5035467;28;20116;-78
2023/06/26 00:07:39;;;;;;;10.15;4.95;;;;;;;21.38;100.00;101337.34;5052798;28;20029;-81
2023/06/26 00:10:05;;;;;;;6.05;4.60;;;;;;;21.29;100.00;101338.53;5052501;28;20040;-78
2023/06/26 00:12:31;;;;;;;12.98;5.28;;;;;;;21.21;100.00;101342.22;5052659;28;20033;-79
2023/06/26 00:14:57;;;;;;;7.78;4.45;;;;;;;21.13;100.00;101351.31;5052670;28;20361;-78
2023/06/26 00:17:22;;;;;;;19.42;4.80;;;;;;;21.06;100.00;101365.81;5052635;28;20052;-78
2023/06/26 00:19:48;;;;;;;8.73;4.50;;;;;;;21.02;100.00;101361.84;5053062;28;20373;-78
2023/06/26 00:22:14;;;;;;;8.73;4.32;;;;;;;20.94;100.00;101354.69;5052784;28;20417;-79
2023/06/26 00:24:39;;;;;;;6.72;3.90;;;;;;;20.88;100.00;101360.88;5034879;28;20043;-78
2023/06/26 00:27:05;;;;;;;9.60;3.97;;;;;;;20.82;100.00;101367.91;5053200;28;20025;-79
2023/06/26 00:29:30;;;;;;;8.77;3.67;;;;;;;20.74;100.00;101366.19;5052682;28;20112;-78
2023/06/26 00:31:56;;;;;;;9.82;4.18;;;;;;;20.66;100.00;101357.34;5052707;28;20072;-79
2023/06/26 00:34:21;;;;;;;7.38;3.67;;;;;;;20.61;100.00;101357.91;5052574;28;20462;-79
2023/06/26 00:36:46;;;;;;;9.73;4.03;;;;;;;20.53;100.00;101358.88;5052657;28;20033;-78
2023/06/26 00:39:12;;;;;;;8.38;4.22;;;;;;;20.48;100.00;101371.28;5052808;28;20354;-78
2023/06/26 00:41:38;;;;;;;12.27;4.20;;;;;;;20.38;100.00;101364.34;5052722;28;20033;-78
2023/06/26 00:44:04;;;;;;;9.43;3.55;;;;;;;20.33;100.00;101372.19;5052287;28;20036;-78
2023/06/26 00:46:30;;;;;;;10.77;4.10;;;;;;;20.28;100.00;101373.78;5052386;28;20461;-78
2023/06/26 00:49:01;;;;;;;8.90;3.78;;;;;;;20.21;100.00;101373.69;5052704;28;20052;-82
2023/06/26 00:51:28;;;;;;;;;;;;;;;20.16;100.00;101373.44;5053234;28;20025;-78
2023/06/26 00:53:54;;;;;;;9.73;4.03;;;;;;;20.13;100.00;101366.53;5052538;28;19913;-78
2023/06/26 00:56:20;;;;;;;9.75;3.83;;;;;;;20.11;100.00;101363.19;5053834;28;20040;-78
2023/06/26 00:58:45;;;;;;;8.63;4.10;;;;;;;20.07;100.00;101373.53;5055878;28;20485;-78
2023/06/26 01:01:15;;;;;;;12.82;4.15;;;;;;;20.07;100.00;101378.94;5056154;28;20040;-78
2023/06/26 01:03:42;;;;;;;9.88;3.95;;;;;;;20.05;100.00;101386.41;5056155;28;20381;-79
2023/06/26 01:06:11;;;;;;;18.38;4.43;;;;;;;20.04;100.00;101373.09;5055574;28;20031;-80
2023/06/26 01:08:37;;;;;;;10.40;3.65;;;;;;;20.01;100.00;101376.16;5056092;28;20029;-79
2023/06/26 01:11:03;;;;;;;8.05;3.60;;;;;;;19.99;100.00;101359.28;5055905;28;20131;-79
2023/06/26 01:13:29;;;;;;;15.77;4.63;;;;;;;19.95;100.00;101360.72;5037906;28;20033;-80
2023/06/26 01:15:55;;;;;;;16.38;4.30;;;;;;;19.89;100.00;101365.81;5055401;28;20021;-79
2023/06/26 01:18:21;;;;;;;14.68;4.30;;;;;;;19.87;100.00;101372.44;5037873;28;20039;-79
2023/06/26 01:20:48;;;;;;;15.20;4.60;;;;;;;19.88;100.00;101376.81;5055530;28;20143;-79
2023/06/26 01:23:31;;;;;;;8.63;3.92;;;;;;;19.87;100.00;101380.53;5055568;28;20083;-77
2023/06/26 01:26:21;;;;;;;9.10;3.95;;;;;;;19.90;100.00;101383.72;5056240;28;20029;-79
2023/06/26 01:28:50;;;;;;;18.48;4.50;;;;;;;19.90;100.00;101367.50;5056171;28;20106;-79
2023/06/26 01:31:16;;;;;;;20.60;4.55;;;;;;;19.88;100.00;101368.72;5055637;28;20029;-82
2023/06/26 01:33:43;;;;;;;17.88;4.25;;;;;;;19.83;100.00;101368.47;5055372;28;20297;-81
2023/06/26 01:36:08;;;;;;;12.73;4.57;;;;;;;19.77;100.00;101377.28;5055469;28;20480;-79
2023/06/26 01:38:34;;;;;;;20.08;4.53;;;;;;;19.73;100.00;101369.56;5055274;28;20033;-81
2023/06/26 01:41:00;;;;;;;11.70;4.20;;;;;;;19.65;100.00;101377.72;5055353;28;20033;-80
2023/06/26 01:43:47;;;;;;;16.73;4.65;;;;;;;19.60;100.00;101373.91;5055386;28;20033;-78
2023/06/26 01:46:23;;;;;;;14.18;4.68;;;;;;;19.47;100.00;101383.50;5055282;28;20037;-79
2023/06/26 01:49:07;;;;;;;15.00;4.78;;;;;;;19.35;100.00;101387.69;5038087;28;20460;-78
2023/06/26 01:51:41;;;;;;;27.27;5.68;;;;;;;19.24;100.00;101383.53;5055931;28;20068;-79
2023/06/26 01:54:13;;;;;;;13.40;4.47;;;;;;;19.17;100.00;101390.72;5055068;28;20560;-79
2023/06/26 01:56:40;;;;;;;15.20;4.65;;;;;;;19.10;100.00;101397.84;5037324;28;20025;-79
2023/06/26 01:59:07;;;;;;;21.38;4.65;;;;;;;19.04;100.00;101377.84;5037366;28;20036;-79
2023/06/26 02:01:33;;;;;;;17.98;5.15;;;;;;;19.02;100.00;101377.19;5054902;28;20041;-80
2023/06/26 02:03:59;;;;;;;14.40;4.55;;;;;;;18.98;100.00;101386.66;5056043;28;20178;-80
2023/06/26 02:06:25;;;;;;;21.02;4.60;;;;;;;18.95;100.00;101395.09;5054992;28;20044;-78
2023/06/26 02:08:50;;;;;;;19.90;5.30;;;;;;;18.92;100.00;101385.50;5053999;28;20389;-80
2023/06/26 02:11:15;;;;;;;19.20;5.45;;;;;;;18.89;100.00;101393.97;5055196;28;20469;-80
2023/06/26 02:13:41;;;;;;;20.92;5.32;;;;;;;18.85;100.00;101396.19;5036659;28;20036;-79
2023/06/26 02:16:06;;;;;;;17.00;4.97;;;;;;;18.79;100.00;101394.16;5054749;28;20483;-80
2023/06/26 02:18:31;;;;;;;20.40;4.85;;;;;;;18.76;100.00;101388.31;5054552;28;20056;-79
2023/06/26 02:20:57;;;;;;;14.82;5.07;;;;;;;18.71;100.00;101393.41;5036658;28;20556;-80
2023/06/26 02:23:22;;;;;;;25.98;5.60;;;;;;;18.67;100.00;101393.78;5054535;28;20059;-79
2023/06/26 02:25:48;;;;;;;22.98;5.68;;;;;;;18.60;100.00;101389.25;5054864;28;20028;-79
2023/06/26 02:28:13;;;;;;;21.02;4.75;;;;;;;18.56;100.00;101396.88;5054738;28;20048;-79
2023/06/26 02:30:38;;;;;;;27.75;5.55;;;;;;;18.52;100.00;101419.78;5054454;28;20389;-79
2023/06/26 02:33:04;;;;;;;18.67;5.05;;;;;;;18.46;100.00;101412.41;5054181;28;20029;-79
2023/06/26 02:35:29;;;;;;;27.10;5.68;;;;;;;18.39;100.00;101412.31;5053939;28;20037;-79
2023/06/26 02:37:54;;;;;;;23.88;5.25;;;;;;;18.29;100.00;101412.50;5054048;28;20060;-79
2023/06/26 02:40:20;;;;;;;23.85;4.78;;;;;;;18.22;100.00;101399.94;5054087;28;20481;-79
2023/06/26 02:42:45;;;;;;;17.92;4.95;;;;;;;18.15;100.00;101406.00;5036018;28;20032;-79
2023/06/26 02:45:10;;;;;;;28.77;5.72;;;;;;;18.08;100.00;101415.81;5036890;28;20033;-79
2023/06/26 02:47:39;;;;;;;21.67;5.68;;;;;;;18.00;100.00;101417.69;5054981;28;20064;-79
2023/06/26 02:50:05;;;;;;;26.52;5.40;;;;;;;17.92;100.00;101424.78;5054342;28;20037;-78
2023/06/26 02:52:31;;;;;;;18.77;5.32;;;;;;;17.85;100.00;101426.44;5055041;28;20031;-79
2023/06/26 02:54:56;;;;;;;25.00;5.95;;;;;;;17.77;100.00;101431.84;5056219;28;20037;-79
2023/06/26 02:57:22;;;;;;;20.25;5.50;;;;;;;17.70;100.00;101434.38;5036310;28;20043;-79
2023/06/26 02:59:47;;;;;;;16.48;5.20;;;;;;;17.66;100.00;101441.13;5036094;28;20039;-79
2023/06/26 03:02:12;;;;;;;29.38;5.90;;;;;;;17.63;100.00;101454.94;5053843;28;20423;-79
2023/06/26 03:04:38;;;;;;;19.10;5.18;;;;;;;17.60;100.00;101458.81;5053444;28;20447;-79
2023/06/26 03:07:04;;;;;;;20.70;5.28;;;;;;;17.61;100.00;101457.78;5019719;28;20029;-79
2023/06/26 03:09:29;;;;;;;16.55;4.70;;;;;;;17.62;100.00;101454.06;5053962;28;20064;-80
2023/06/26 03:11:55;;;;;;;23.02;5.25;;;;;;;17.63;100.00;101441.47;5053730;28;20033;-79
2023/06/26 03:14:21;;;;;;;17.38;5.28;;;;;;;17.59;100.00;101445.53;5035886;28;20037;-79
2023/06/26 03:16:46;;;;;;;16.55;5.03;;;;;;;17.55;100.00;101454.94;5054354;28;20064;-78
2023/06/26 03:19:11;;;;;;;21.08;5.05;;;;;;;17.50;100.00;101455.44;5053192;28;20086;-78
2023/06/26 03:21:37;;;;;;;19.60;5.25;;;;;;;17.46;100.00;101462.16;5053676;28;20128;-79
2023/06/26 03:24:03;;;;;;;19.50;4.90;;;;;;;17.40;100.00;101462.84;5035672;28;20212;-80
2023/06/26 03:26:28;;;;;;;21.23;5.03;;;;;;;17.36;100.00;101461.50;5053981;28;20464;-79
2023/06/26 03:28:54;;;;;;;22.30;5.00;;;;;;;17.32;100.00;101462.88;5053333;28;20029;-80
2023/06/26 03:31:20;;;;;;;18.10;5.10;;;;;;;17.27;100.00;101461.53;5053363;28;20183;-79
2023/06/26 03:33:46;;;;;;;17.30;4.63;;;;;;;17.24;100.00;101467.22;5053154;28;20120;-79
2023/06/26 03:36:11;;;;;;;12.68;4.30;;;;;;;17.22;100.00;101463.03;5052951;28;20039;-80
2023/06/26 03:38:37;;;;;;;20.45;5.20;;;;;;;17.18;100.00;101462.53;5052928;28;20029;-79
2023/06/26 03:41:03;;;;;;;12.75;4.63;;;;;;;17.17;100.00;101465.38;5053215;28;20089;-80
2023/06/26 03:43:28;;;;;;;16.10;5.80;;;;;;;17.12;100.00;101473.94;5053066;28;20033;-79
2023/06/26 03:45:54;;;;;;;16.27;5.32;;;;;;;17.10;100.00;101459.81;5052816;28;20033;-79
2023/06/26 03:48:19;;;;;;;13.18;4.22;;;;;;;17.05;100.00;101467.56;5053094;28;20464;-79
2023/06/26 03:50:45;;;;;;;14.98;4.53;;;;;;;17.01;100.00;101471.59;5052900;28;20094;-79
2023/06/26 03:53:11;;;;;;;17.20;4.30;;;;;;;17.00;100.00;101477.94;5052968;28;20029;-79
2023/06/26 03:55:38;;;;;;;14.95;4.60;;;;;;;16.98;100.00;101474.59;5053220;28;20495;-79
2023/06/26 03:58:03;;;;;;;14.15;4.72;;;;;;;16.98;100.00;101485.34;5053096;28;20033;-79
2023/06/26 04:00:29;;;;;;;15.07;4.60;;;;;;;16.95;100.00;101486.50;5053015;28;20033;-78
2023/06/26 04:02:54;;;;;;;18.15;4.57;;;;;;;16.96;100.00;101496.28;5052820;28;20487;-80
2023/06/26 04:05:19;;;;;;;8.50;3.90;;;;;;;16.98;100.00;101499.63;5018710;28;20025;-79
2023/06/26 04:07:45;;;;;;;18.88;4.20;;;;;;;17.03;100.00;101499.13;5053390;28;20064;-79
2023/06/26 04:10:10;;;;;;;10.57;3.65;;;;;;;17.13;100.00;101520.50;5053115;28;20087;-78
2023/06/26 04:12:36;;;;;;;12.70;4.90;;;;;;;17.21;100.00;101520.50;5053397;28;20495;-78
2023/06/26 04:15:01;;;;;;;7.95;3.50;;;;;;;17.28;100.00;101516.97;5052793;28;20033;-78
2023/06/26 04:17:26;;;;;;;6.70;3.58;;;;;;;17.37;100.00;101528.56;5052620;28;20061;-79
2023/06/26 04:19:52;;;;;;;9.10;3.70;;;;;;;17.42;100.00;101522.69;5034444;28;20036;-79
2023/06/26 04:22:17;;;;;;;13.73;3.92;;;;;;;17.47;100.00;101531.09;5052448;28;20162;-79
2023/06/26 04:24:45;;;;;;;8.07;3.30;;;;;;;17.51;100.00;101519.00;5034820;28;20037;-77
2023/06/26 04:27:13;;;;;;;9.55;3.20;;;;;;;17.58;100.00;101533.44;5053379;28;20090;-81
2023/06/26 04:29:39;;;;;;;12.15;3.83;;;;;;;17.65;100.00;101532.78;5052577;28;20492;-80
2023/06/26 04:32:04;;;;;;;7.93;3.67;;;;;;;17.68;100.00;101533.28;5055572;28;20064;-80
2023/06/26 04:34:35;;;;;;;6.85;3.53;;;;;;;17.70;100.00;101539.31;5056547;28;20064;-79
2023/06/26 04:37:00;;;;;;;6.37;3.17;;;;;;;17.71;100.00;101534.81;5056778;28;20028;-80
2023/06/26 04:39:26;;;;;;;7.65;3.72;;;;;;;17.68;100.00;101538.66;5021987;28;20542;-84
2023/06/26 04:41:51;;;;;;;10.07;3.85;;;;;;;17.61;100.00;101551.13;5038588;28;20464;-80
2023/06/26 04:44:16;;;;;;;10.70;3.22;;;;;;;17.52;100.00;101549.44;5056109;28;20036;-80
2023/06/26 04:46:42;;;;;;;5.30;3.33;;;;;;;17.43;100.00;101557.47;5056021;28;20064;-79
2023/06/26 04:49:10;;;;;;;10.40;3.47;;;;;;;17.42;100.00;101569.28;5056851;28;20029;-80
2023/06/26 04:51:40;;;;;;;9.27;3.38;;;;;;;17.43;100.00;101572.78;5056786;28;20532;-79
2023/06/26 04:54:07;;;;;;;11.10;4.00;;;;;;;17.49;100.00;101564.06;5056483;28;20037;-79
2023/06/26 04:56:32;;;;;;;10.63;3.72;;;;;;;17.58;100.00;101568.44;5038965;28;20037;-79
2023/06/26 04:58:58;;;;;;;10.95;3.20;;;;;;;17.61;100.00;101575.31;5056072;28;20123;-78
2023/06/26 05:01:23;;;;;;;11.68;3.75;;;;;;;17.65;100.00;101578.53;5038012;28;20029;-79
2023/06/26 05:03:49;;;;;;;9.15;3.50;;;;;;;17.66;100.00;101582.91;5056415;28;20044;-80
2023/06/26 05:06:14;;;;;;;7.88;3.20;;;;;;;17.69;100.00;101578.03;5056266;28;20029;-80
2023/06/26 05:08:40;;;;;;;10.70;3.35;;;;;;;17.67;100.00;101584.59;5056682;28;20071;-80
2023/06/26 05:11:05;;;;;;;10.10;3.10;;;;;;;17.65;100.00;101595.53;5055956;28;20025;-80
2023/06/26 05:13:31;;;;;;;6.10;3.03;;;;;;;17.70;100.00;101593.16;5056227;28;20040;-80
2023/06/26 05:15:56;;;;;;;5.35;3.13;;;;;;;17.84;100.00;101597.03;5056140;28;20029;-81
2023/06/26 05:18:21;;;;;;;11.23;3.35;;;;;;;17.92;100.00;101588.16;5055967;28;20185;-79
2023/06/26 05:20:47;;;;;;;10.20;4.05;;;;;;;17.97;100.00;101605.47;5056425;28;20048;-81
2023/06/26 05:23:13;;;;;;;7.32;3.05;;;;;;;18.13;100.00;101615.38;5056134;28;20041;-83
2023/06/26 05:25:39;;;;;;;9.60;2.90;;;;;;;18.17;100.00;101612.34;5055751;28;20457;-82
2023/06/26 05:28:05;;;;;;;7.38;2.60;;;;;;;18.17;100.00;101610.50;5055521;28;20033;-81
2023/06/26 05:30:31;;;;;;;9.90;2.58;;;;;;;18.22;100.00;101618.06;5055655;28;20071;-82
2023/06/26 05:33:00;;;;;;;7.22;2.33;;;;;;;18.30;100.00;101629.69;5055349;28;20033;-82
2023/06/26 05:35:28;;;;;;;8.40;2.20;;;;;;;18.31;100.00;101631.34;5055544;28;20021;-82
2023/06/26 05:37:55;;;;;;;10.73;2.38;;;;;;;18.25;100.00;101636.59;5055410;28;20036;-82
2023/06/26 05:40:21;;;;;;;8.43;2.10;;;;;;;18.15;100.00;101642.13;5055504;28;20029;-83
2023/06/26 05:42:46;;;;;;;11.40;3.30;;;;;;;17.96;100.00;101646.88;5055305;28;20036;-80
2023/06/26 05:45:12;;;;;;;4.47;1.85;;;;;;;17.79;100.00;101646.00;5037672;28;20039;-81
2023/06/26 05:47:37;;;;;;;9.45;2.08;;;;;;;17.70;100.00;101644.28;5055097;28;20036;-81
2023/06/26 05:50:04;;;;;;;6.47;1.73;;;;;;;17.79;100.00;101650.53;5054970;28;20417;-81
2023/06/26 05:52:29;;;;;;;11.05;1.92;;;;;;;18.04;100.00;101653.28;5055421;28;20412;-81
2023/06/26 05:54:58;;;;;;;10.00;2.13;;;;;;;18.27;100.00;101653.41;5055053;28;20025;-80
2023/06/26 05:57:24;;;;;;;9.68;1.90;;;;;;;18.26;100.00;101655.28;5055428;28;20068;-80
2023/06/26 05:59:51;;;;;;;10.13;1.88;;;;;;;18.27;100.00;101654.28;5055745;28;20057;-83
2023/06/26 06:02:16;;;;;;;15.20;2.47;;;;;;;18.26;100.00;101647.19;5037170;28;20048;-80
2023/06/26 06:04:41;;;;;;;9.60;2.22;;;;;;;18.21;100.00;101659.47;5054905;28;20045;-80
2023/06/26 06:07:07;;;;;;;11.77;1.90;;;;;;;18.25;100.00;101666.22;5055405;28;20112;-79
2023/06/26 06:09:32;;;;;;;12.68;2.00;;;;;;;18.25;100.00;101667.03;5055381;28;20033;-79
2023/06/26 06:11:59;;;;;;;9.90;2.55;;;;;;;18.18;100.00;101674.09;5054789;28;20035;-80
2023/06/26 06:14:24;;;;;;;8.20;1.88;;;;;;;18.18;100.00;101684.06;5037116;28;20055;-79
2023/06/26 06:16:50;;;;;;;9.18;1.90;;;;;;;18.18;100.00;101679.50;5054848;28;20119;-79
2023/06/26 06:19:15;;;;;;;9.88;1.92;;;;;;;18.26;100.00;101686.75;5054527;28;20385;-80
2023/06/26 06:21:40;;;;;;;8.13;1.95;;;;;;;18.35;100.00;101692.94;5055093;28;20055;-79
2023/06/26 06:24:09;;;;;;;11.00;2.38;;;;;;;18.25;100.00;101690.44;5054906;28;20037;-80
2023/06/26 06:26:35;;;;;;;13.35;2.67;;;;;;;18.23;100.00;101687.94;5055223;28;20036;-79
2023/06/26 06:29:00;;;;;;;9.57;2.28;;;;;;;18.23;100.00;101689.78;5054667;28;20025;-79
2023/06/26 06:31:28;;;;;;;12.98;2.08;;;;;;;18.12;100.00;101697.19;5037447;28;20480;-79
2023/06/26 06:33:54;;;;;;;11.57;1.90;;;;;;;18.18;100.00;101694.81;5054573;28;20068;-79
2023/06/26 06:36:20;;;;;;;10.05;2.15;;;;;;;18.27;100.00;101700.06;5054881;28;20523;-79
2023/06/26 06:38:45;;;;;;;7.10;1.73;;;;;;;18.53;100.00;101711.66;5037140;28;20037;-78
2023/06/26 06:41:12;;;;;;;6.35;1.95;;;;;;;18.69;100.00;101708.94;5036416;28;20062;-78
2023/06/26 06:43:38;;;;;;;7.78;2.00;;;;;;;18.75;100.00;101718.16;5054233;28;20060;-80
2023/06/26 06:46:03;;;;;;;7.63;1.70;;;;;;;18.63;100.00;101720.38;5054034;28;20072;-79
2023/06/26 06:48:28;;;;;;;7.40;2.00;;;;;;;18.44;100.00;101724.28;5054455;28;20044;-79
2023/06/26 06:50:54;;;;;;;5.13;1.90;;;;;;;18.48;100.00;101731.00;5054345;28;20025;-80
2023/06/26 06:53:22;;;;;;;5.90;1.77;;;;;;;18.55;100.00;101737.41;5035300;28;20033;-80
2023/06/26 06:55:48;;;;;;;8.32;2.33;;;;;;;18.63;100.00;101745.50;5054365;28;20480;-79
2023/06/26 06:58:14;;;;;;;6.40;1.92;;;;;;;18.72;100.00;101743.63;5054006;28;20025;-81
2023/06/26 07:00:39;;;;;;;9.30;2.05;;;;;;;18.90;100.00;101742.59;5053952;28;20366;-80
2023/06/26 07:03:04;;;;;;;8.27;2.20;;;;;;;18.98;100.00;101746.13;5019714;28;20061;-80
2023/06/26 07:05:30;;;;;;;8.98;2.15;;;;;;;19.10;100.00;101745.75;5053956;28;20090;-80
2023/06/26 07:07:55;;;;;;;8.20;2.03;;;;;;;19.19;100.00;101740.16;5053502;28;20059;-79
2023/06/26 07:10:21;;;;;;;9.60;1.80;;;;;;;19.12;100.00;101749.13;5053632;28;20032;-82
2023/06/26 07:12:46;;;;;;;9.07;2.10;;;;;;;19.18;100.00;101751.13;5036119;28;20522;-81
2023/06/26 07:15:12;;;;;;;7.65;1.90;;;;;;;19.17;100.00;101752.16;5053739;28;20120;-80
2023/06/26 07:17:38;;;;;;;9.10;1.95;;;;;;;19.26;100.00;101753.78;5036331;28;20036;-80
2023/06/26 07:20:06;;;;;;;7.97;2.22;;;;;;;19.24;100.00;101766.59;5054423;28;20048;-80
2023/06/26 07:22:32;;;;;;;9.88;1.90;;;;;;;19.17;100.00;101766.47;5054041;28;20035;-80
2023/06/26 07:24:57;;;;;;;10.27;1.90;;;;;;;19.27;100.00;101765.41;5054026;28;20124;-79
2023/06/26 07:27:23;;;;;;;11.77;2.17;;;;;;;19.36;100.00;101770.63;5053572;28;20029;-79
2023/06/26 07:29:48;;;;;;;6.95;1.60;;;;;;;19.45;100.00;101774.13;5054507;28;20520;-79
2023/06/26 07:32:14;;;;;;;8.32;1.98;;;;;;;19.57;100.00;101779.94;5053708;28;20098;-79
2023/06/26 07:34:40;;;;;;;3.80;1.50;;;;;;;19.51;100.00;101789.63;5054019;28;20450;-79
2023/06/26 07:37:05;;;;;;;8.07;2.10;;;;;;;19.51;100.00;101786.91;5053642;28;20032;-80
2023/06/26 07:39:30;;;;;;;5.60;2.00;;;;;;;19.48;100.00;101795.38;5053905;28;20065;-81
2023/06/26 07:41:59;;;;;;;8.15;2.20;;;;;;;19.47;100.00;101788.28;5036167;28;20112;-80
2023/06/26 07:44:24;;;;;;;12.20;1.90;;;;;;;19.48;100.00;101784.56;5053021;28;20070;-79
2023/06/26 07:46:49;;;;;;;12.15;2.30;;;;;;;19.51;100.00;101792.31;5053059;28;20033;-81
2023/06/26 07:49:15;;;;;;;9.98;2.28;;;;;;;19.64;100.00;101786.34;5053356;28;20472;-80
2023/06/26 07:51:40;;;;;;;14.40;1.80;;;;;;;19.53;100.00;101795.66;5035258;28;20492;-81
2023/06/26 07:54:06;;;;;;;6.88;1.90;;;;;;;19.70;100.00;101809.09;5035335;28;20029;-80
2023/06/26 07:56:51;;;;;;;7.80;1.70;;;;;;;19.78;100.00;101813.63;5053988;28;20033;-81
2023/06/26 07:59:16;;;;;;;6.03;1.88;;;;;;;19.80;100.00;101809.75;5053255;28;20029;-80
2023/06/26 08:01:42;;;;;;;6.47;1.80;;;;;;;19.99;100.00;101810.31;5053348;28;20375;-80
2023/06/26 08:04:07;;;;;;;6.70;1.63;;;;;;;20.16;100.00;101813.78;5053105;28;20082;-81
2023/06/26 08:06:33;;;;;;;6.03;1.73;;;;;;;20.32;100.00;101820.91;5022897;28;20035;-80
2023/06/26 08:08:58;;;;;;;10.18;1.85;;;;;;;20.26;100.00;101817.91;5057747;28;20029;-80
2023/06/26 08:11:23;;;;;;;9.07;1.80;;;;;;;20.17;100.00;101807.34;5057707;28;20036;-80
2023/06/26 08:13:49;;;;;;;11.48;2.30;;;;;;;20.32;100.00;101810.97;5057063;28;20054;-79
2023/06/26 08:16:14;;;;;;;5.03;1.80;;;;;;;20.40;100.00;101821.69;5038735;28;20056;-80
2023/06/26 08:18:39;;;;;;;6.32;1.88;;;;;;;20.41;100.00;101820.69;5057259;28;20021;-80
2023/06/26 08:21:05;;;;;;;7.25;2.20;;;;;;;20.46;100.00;101822.84;5056876;28;20077;-79
2023/06/26 08:23:31;;;;;;;7.28;1.88;;;;;;;20.57;100.00;101822.44;5056970;28;20037;-82
2023/06/26 08:25:58;;;;;;;7.88;1.65;;;;;;;20.67;100.00;101833.00;5039527;28;20033;-80
2023/06/26 08:28:23;;;;;;;8.73;2.13;;;;;;;20.65;100.00;101829.63;5056906;28;20072;-79
2023/06/26 08:30:49;;;;;;;5.32;1.55;;;;;;;20.82;100.00;101818.69;5039479;28;20047;-79
2023/06/26 08:33:14;;;;;;;9.10;1.85;;;;;;;20.90;100.00;101832.97;5057316;28;20037;-79
2023/06/26 08:35:40;;;;;;;4.55;1.52;;;;;;;21.09;100.00;101830.75;5039078;28;20465;-80
2023/06/26 08:38:05;;;;;;;5.15;1.90;;;;;;;21.10;99.33;101841.41;5057101;28;20437;-80
2023/06/26 08:40:32;;;;;;;9.00;1.88;;;;;;;21.16;100.00;101841.69;5056812;28;20037;-80
2023/06/26 08:42:57;;;;;;;7.00;1.92;;;;;;;21.17;99.45;101846.06;5038723;28;20029;-80
2023/06/26 08:45:22;;;;;;;6.25;2.47;;;;;;;21.39;100.00;101860.56;5038654;28;20052;-80
2023/06/26 08:47:53;;;;;;;12.93;2.00;;;;;;;21.54;100.00;101864.16;5056474;28;20067;-79
2023/06/26 08:50:22;;;;;;;11.35;2.55;;;;;;;21.51;100.00;101852.84;5056677;28;20060;-80
2023/06/26 08:52:48;;;;;;;6.55;1.60;;;;;;;21.28;98.65;101857.28;5056497;28;20032;-80
2023/06/26 08:55:15;;;;;;;6.55;2.13;;;;;;;21.61;99.40;101861.53;5056437;28;20037;-80
2023/06/26 08:57:41;;;;;;;8.73;2.00;;;;;;;21.67;97.38;101849.94;5056621;28;20124;-79
2023/06/26 09:00:08;;;;;;;8.73;2.05;;;;;;;21.86;96.54;101859.34;5057182;28;20060;-82
2023/06/26 09:02:36;;;;;;;5.15;1.80;;;;;;;22.23;91.00;101860.19;5056242;28;20040;-79
2023/06/26 09:05:02;;;;;;;6.13;1.98;;;;;;;22.15;89.94;101869.28;5056253;28;20132;-79
2023/06/26 09:07:28;;;;;;;6.38;2.15;;;;;;;22.42;92.24;101863.34;5056243;28;20043;-79
2023/06/26 09:09:53;;;;;;;8.98;1.83;;;;;;;22.82;84.27;101864.53;5056080;28;20029;-83
2023/06/26 09:12:20;;;;;;;7.15;2.00;;;;;;;22.91;84.61;101867.13;5055970;28;20040;-79
2023/06/26 09:14:46;;;;;;;14.70;2.33;;;;;;;23.09;81.49;101864.75;5055634;28;20104;-80
2023/06/26 09:17:13;;;;;;;9.02;1.75;;;;;;;23.33;83.45;101870.78;5054858;28;20388;-79
2023/06/26 09:19:39;;;;;;;9.20;2.20;;;;;;;23.76;79.55;101878.75;5056215;28;20040;-79
2023/06/26 09:22:10;;;;;;;6.25;1.77;;;;;;;23.79;76.78;101883.78;5056334;28;20049;-77
2023/06/26 09:24:36;;;;;;;7.43;1.98;;;;;;;23.58;71.95;101888.28;5056620;28;20037;-80
2023/06/26 09:27:02;;;;;;;7.35;2.10;;;;;;;23.54;73.46;101888.88;5055861;28;20093;-80
2023/06/26 09:29:29;;;;;;;6.60;1.90;;;;;;;23.06;76.10;101901.28;5055723;28;20523;-81
2023/06/26 09:31:56;;;;;;;5.78;1.73;;;;;;;23.10;77.61;101896.31;5038628;28;20041;-81
2023/06/26 09:34:21;;;;;;;10.18;2.10;;;;;;;22.96;79.60;101900.78;5055293;28;20425;-79
2023/06/26 09:36:48;;;;;;;8.68;2.03;;;;;;;23.49;77.92;101903.06;5037336;28;20033;-79
2023/06/26 09:39:14;;;;;;;7.40;1.88;;;;;;;24.02;73.55;101907.97;5038023;28;20064;-80
2023/06/26 09:41:44;;;;;;;7.68;1.80;;;;;;;23.88;70.31;101908.94;5055599;28;20392;-81
2023/06/26 09:44:14;;;;;;;6.63;1.95;;;;;;;23.53;69.92;101911.66;5055660;28;20025;-81
2023/06/26 09:46:40;;;;;;;6.23;1.93;;;;;;;23.94;69.66;101925.31;5055794;28;20029;-80
2023/06/26 09:49:10;;;;;;;6.53;1.60;;;;;;;24.14;68.39;101929.13;5055314;28;20385;-80
2023/06/26 09:51:37;;;;;;;5.75;2.00;;;;;;;24.46;66.61;101920.22;5055519;28;20043;-79
2023/06/26 09:54:04;;;;;;;6.97;1.92;;;;;;;24.37;65.87;101932.34;5055051;28;20033;-80
2023/06/26 09:56:32;;;;;;;7.55;1.88;;;;;;;24.01;66.19;101928.03;5037799;28;20029;-82
2023/06/26 09:59:03;;;;;;;6.43;1.60;;;;;;;24.21;66.02;101932.72;5055634;28;20028;-82
2023/06/26 10:01:30;;;;;;;13.13;1.80;;;;;;;24.38;67.89;101936.75;5038072;28;20053;-80
2023/06/26 10:03:59;;;;;;;6.20;1.90;;;;;;;24.45;63.96;101936.75;5055084;28;20147;-80
2023/06/26 10:06:28;;;;;;;6.43;1.70;;;;;;;24.45;64.09;101943.06;5037669;28;20025;-83
2023/06/26 10:08:56;;;;;;;5.88;1.45;;;;;;;24.72;62.67;101956.75;5055096;28;20114;-81
2023/06/26 10:11:22;;;;;;;10.63;2.00;;;;;;;24.40;64.01;101936.56;5037357;28;20037;-78
2023/06/26 10:13:51;;;;;;;5.63;1.80;;;;;;;24.69;64.40;101943.53;5054880;28;20033;-80
2023/06/26 10:16:28;;;;;;;10.77;1.83;;;;;;;24.63;61.46;101941.66;5055117;28;20044;-80
2023/06/26 10:18:57;;;;;;;5.93;1.88;;;;;;;24.59;62.00;101941.22;5054926;28;20048;-79
2023/06/26 10:21:26;;;;;;;6.45;1.75;;;;;;;24.75;61.49;101945.44;5054991;28;20106;-80
2023/06/26 10:23:53;;;;;;;6.25;1.63;;;;;;;24.64;60.52;101951.50;5055256;28;20029;-79
2023/06/26 10:26:21;;;;;;;8.30;1.70;;;;;;;24.79;60.95;101949.41;5037113;28;20036;-78
2023/06/26 10:28:51;;;;;;;12.40;1.73;;;;;;;25.19;60.72;101959.50;5053552;28;20029;-80
2023/06/26 10:31:18;;;;;;;;;;;;;;;25.06;59.89;101959.50;5055292;28;20021;-78
2023/06/26 10:33:43;;;;;;;6.35;2.05;;;;;;;25.24;59.59;101958.88;5054725;28;20379;-80
2023/06/26 10:36:18;;;;;;;7.75;1.95;;;;;;;25.17;61.72;101964.34;5054782;28;20033;-79
2023/06/26 10:38:52;;;;;;;6.40;1.95;;;;;;;24.87;58.74;101974.75;5054400;28;20033;-80
2023/06/26 10:41:23;;;;;;;8.25;1.85;;;;;;;24.31;60.20;101993.00;5055047;28;20060;-82
2023/06/26 10:44:07;;;;;;;6.65;1.70;;;;;;;23.87;64.05;101983.34;5037411;28;20369;-78
2023/06/26 10:46:55;;;;;;;8.93;1.92;;;;;;;24.39;65.57;101987.41;5055151;28;20094;-81
2023/06/26 10:49:30;;;;;;;9.50;1.92;;;;;;;24.56;60.33;101984.31;5070741;28;20976;-82
2023/06/26 10:52:01;;;;;;;7.47;1.73;;;;;;;24.78;59.09;101983.13;5070592;28;20090;-83
2023/06/26 10:54:30;;;;;;;8.38;1.83;;;;;;;24.55;58.30;101977.19;5069821;28;20032;-83
2023/06/26 10:56:58;;;;;;;5.20;1.52;;;;;;;24.81;60.76;101976.41;5070376;28;20028;-82
2023/06/26 10:59:27;;;;;;;4.40;1.73;;;;;;;25.20;59.33;101995.72;5069934;28;20032;-79
2023/06/26 11:02:02;;;;;;;5.97;1.50;;;;;;;25.42;56.21;101990.94;5069856;28;20029;-80
2023/06/26 11:04:46;;;;;;;7.20;1.80;;;;;;;24.47;58.02;102000.81;5069510;28;20437;-80
2023/06/26 11:07:21;;;;;;;9.98;1.80;;;;;;;24.49;60.34;102006.03;5069492;28;20036;-80
2023/06/26 11:10:06;;;;;;;6.97;1.80;;;;;;;24.25;60.75;102010.94;5069306;28;20037;-81
2023/06/26 11:12:38;;;;;;;5.80;1.55;;;;;;;24.72;59.90;102010.31;5069067;28;20032;-80
2023/06/26 11:15:24;;;;;;;7.78;1.40;;;;;;;24.56;61.81;102006.91;5069315;28;20029;-80